Time;durP1;ratioP1;P1;durP2;ratioP2;P2;SDS_P1;SDS_P2;PMS_P1;PMS_P2;Temp;Humidity;BMP_temperature;BMP_pressure;BME280_temperature;BME280_humidity;BME280_pressure;Samples;Min_cycle;Max_cycle;Signal;HPM_P1;HPM_P2
2023/02/26 00:01:42;;;;;;;8.30;4.32;;;154.50;2252.80;;;;;;5079687;28;20040;-77
2023/02/26 00:04:08;;;;;;;7.75;4.53;;;154.50;2252.80;;;;;;5074550;28;20479;-77
2023/02/26 00:06:37;;;;;;;8.75;4.22;;;154.40;2252.80;;;;;;5073096;28;20039;-75
2023/02/26 00:09:04;;;;;;;5.55;3.67;;;154.40;2252.80;;;;;;5063368;28;20373;-72
2023/02/26 00:11:30;;;;;;;6.20;3.92;;;154.20;2252.80;;;;;;5072462;28;20478;-73
2023/02/26 00:13:56;;;;;;;6.53;3.40;;;154.30;2252.80;;;;;;5071502;28;20051;-74
2023/02/26 00:16:27;;;;;;;;;;;154.30;2252.80;;;;;;5069945;28;20376;-75
2023/02/26 00:18:57;;;;;;;6.38;3.22;;;154.10;2252.80;;;;;;5071737;28;19912;-75
2023/02/26 00:21:24;;;;;;;6.50;3.88;;;154.20;2252.80;;;;;;5072528;28;20028;-75
2023/02/26 00:23:50;;;;;;;10.13;4.63;;;154.30;2252.80;;;;;;5072146;28;20020;-75
2023/02/26 00:26:15;;;;;;;;;;;154.10;2252.80;;;;;;5072250;28;20388;-75
2023/02/26 00:28:42;;;;;;;10.38;4.65;;;154.10;2252.80;;;;;;5071541;28;19912;-75
2023/02/26 00:31:08;;;;;;;10.90;4.25;;;154.20;2252.80;;;;;;5071529;28;20028;-75
2023/02/26 00:33:34;;;;;;;15.15;7.15;;;154.20;2252.80;;;;;;5073130;28;20060;-75
2023/02/26 00:36:18;;;;;;;11.23;6.35;;;154.50;2252.80;;;;;;5084007;28;20373;-75
2023/02/26 00:39:08;;;;;;;10.25;4.90;;;154.30;2252.80;;;;;;5072551;28;20504;-75
2023/02/26 00:41:35;;;;;;;11.25;5.22;;;154.30;2252.80;;;;;;5030294;28;20628;-75
2023/02/26 00:44:01;;;;;;;12.10;6.05;;;154.30;2252.80;;;;;;5025357;28;20117;-75
2023/02/26 00:46:32;;;;;;;;;;;154.40;2252.80;;;;;;5043971;28;20131;-75
2023/02/26 00:49:34;;;;;;;10.10;6.13;;;154.10;2252.80;;;;;;5044018;28;19904;-75
2023/02/26 00:52:09;;;;;;;13.43;7.43;;;154.20;2252.80;;;;;;4985907;28;20046;-75
2023/02/26 00:54:35;;;;;;;7.68;4.20;;;154.30;2252.80;;;;;;4986093;28;20043;-75
2023/02/26 00:57:03;;;;;;;;;;;154.40;2252.80;;;;;;4981090;28;20100;-75
2023/02/26 00:59:28;;;;;;;8.93;4.80;;;154.40;2252.80;;;;;;4984248;28;19913;-75
2023/02/26 01:01:54;;;;;;;;;;;154.40;2252.80;;;;;;4982171;28;20042;-75
2023/02/26 01:04:23;;;;;;;11.27;6.10;;;154.40;2252.80;;;;;;4984927;28;19906;-75
2023/02/26 01:06:52;;;;;;;8.38;5.50;;;154.40;2252.80;;;;;;4985436;28;20039;-75
2023/02/26 01:09:36;;;;;;;7.45;5.25;;;154.40;2252.80;;;;;;4977718;28;20121;-75
2023/02/26 01:12:07;;;;;;;9.05;5.57;;;154.40;2252.80;;;;;;4982694;28;20045;-75
2023/02/26 01:14:33;;;;;;;5.57;3.95;;;154.50;2252.80;;;;;;4989165;28;20513;-75
2023/02/26 01:17:24;;;;;;;6.60;3.22;;;154.30;2252.80;;;;;;4987445;28;20026;-75
2023/02/26 01:19:56;;;;;;;5.55;3.10;;;154.30;2252.80;;;;;;5009831;28;20069;-75
2023/02/26 01:22:29;;;;;;;6.35;3.05;;;154.40;2252.80;;;;;;5010644;28;20040;-75
2023/02/26 01:25:24;;;;;;;4.88;2.42;;;154.40;2252.80;;;;;;5010010;28;20498;-74
2023/02/26 01:27:51;;;;;;;5.05;2.65;;;154.50;2252.80;;;;;;5020655;28;20028;-75
2023/02/26 01:30:18;;;;;;;4.15;2.20;;;154.10;2252.80;;;;;;5071797;28;20473;-75
2023/02/26 01:32:52;;;;;;;5.45;2.67;;;154.00;2252.80;;;;;;5072294;28;20114;-75
2023/02/26 01:35:18;;;;;;;4.35;1.58;;;154.20;2252.80;;;;;;5071096;28;20016;-74
2023/02/26 01:37:51;;;;;;;;;;;154.10;2252.80;;;;;;5063105;28;20073;-75
2023/02/26 01:40:20;;;;;;;2.10;1.27;;;154.10;2252.80;;;;;;5063141;28;19905;-75
2023/02/26 01:42:51;;;;;;;2.53;1.30;;;153.80;2252.80;;;;;;5068696;28;20025;-75
2023/02/26 01:45:22;;;;;;;2.45;1.50;;;153.70;2252.80;;;;;;5061278;28;20033;-75
2023/02/26 01:47:56;;;;;;;2.60;1.60;;;128.90;2252.80;;;;;;5061773;28;20119;-75
2023/02/26 01:50:28;;;;;;;2.05;1.33;;;128.90;2252.80;;;;;;5061970;28;20024;-75
2023/02/26 01:53:22;;;;;;;2.92;1.73;;;153.60;2252.80;;;;;;5062466;28;20044;-75
2023/02/26 01:55:53;;;;;;;4.13;2.20;;;128.80;2252.80;;;;;;5063816;28;20376;-75
2023/02/26 01:58:20;;;;;;;4.80;2.35;;;128.90;2252.80;;;;;;5062920;28;20021;-75
2023/02/26 02:00:46;;;;;;;4.68;2.20;;;128.70;2252.80;;;;;;5060089;28;20037;-75
2023/02/26 02:03:11;;;;;;;;;;;128.80;2252.80;;;;;;5062540;28;20086;-75
2023/02/26 02:05:40;;;;;;;4.40;2.72;;;128.90;2252.80;;;;;;5062225;28;19905;-77
2023/02/26 02:08:06;;;;;;;8.75;4.35;;;128.80;2252.80;;;;;;5068650;28;20381;-75
2023/02/26 02:10:31;;;;;;;;;;;128.70;2252.80;;;;;;5061862;28;20029;-75
2023/02/26 02:13:15;;;;;;;15.45;7.28;;;128.70;2252.80;;;;;;5061702;28;19913;-75
2023/02/26 02:16:10;;;;;;;14.20;7.78;;;128.40;2252.80;;;;;;5085378;28;20033;-75
2023/02/26 02:18:45;;;;;;;14.32;6.22;;;128.30;2252.80;;;;;;5077617;28;20021;-75
2023/02/26 02:21:45;;;;;;;12.23;4.97;;;128.40;2252.80;;;;;;5061461;28;20029;-75
2023/02/26 02:24:23;;;;;;;12.63;6.63;;;128.40;2252.80;;;;;;5010786;28;20034;-75
2023/02/26 02:27:03;;;;;;;7.65;3.90;;;128.30;2252.80;;;;;;5010696;28;20056;-75
2023/02/26 02:29:49;;;;;;;7.07;3.80;;;128.30;2252.80;;;;;;5010505;28;20026;-75
2023/02/26 02:32:39;;;;;;;5.57;2.78;;;128.20;2252.80;;;;;;4993685;28;20057;-75
2023/02/26 02:35:23;;;;;;;8.55;5.45;;;128.00;2252.80;;;;;;4936174;29;20047;-76
2023/02/26 02:38:10;;;;;;;7.88;5.28;;;128.10;2252.80;;;;;;4952224;28;20412;-75
2023/02/26 02:40:41;;;;;;;6.60;3.60;;;128.30;2252.80;;;;;;4954786;28;20056;-75
2023/02/26 02:43:21;;;;;;;3.38;2.03;;;128.40;2252.80;;;;;;4955651;28;20036;-76
2023/02/26 02:45:50;;;;;;;4.07;2.20;;;128.40;2252.80;;;;;;4955475;28;20175;-77
2023/02/26 02:48:30;;;;;;;2.78;1.65;;;128.40;2252.80;;;;;;4953515;29;20146;-76
2023/02/26 02:51:03;;;;;;;3.40;1.73;;;128.30;2252.80;;;;;;4953983;28;20038;-75
2023/02/26 02:53:35;;;;;;;5.32;2.85;;;128.20;2252.80;;;;;;4955337;28;20103;-76
2023/02/26 02:56:13;;;;;;;7.47;4.00;;;128.00;2252.80;;;;;;4955471;28;20028;-75
2023/02/26 02:58:44;;;;;;;12.15;7.13;;;128.10;2252.80;;;;;;4979517;28;20441;-76
2023/02/26 03:01:13;;;;;;;11.55;6.65;;;103.30;2227.20;;;;;;5013663;28;20036;-75
2023/02/26 03:03:55;;;;;;;13.95;6.97;;;103.30;2227.20;;;;;;4997223;28;20604;-75
2023/02/26 03:06:20;;;;;;;13.43;5.97;;;103.30;2227.20;;;;;;4995512;28;20044;-75
2023/02/26 03:08:47;;;;;;;;;;;103.20;2227.20;;;;;;4997609;28;20026;-75
2023/02/26 03:11:13;;;;;;;10.38;6.47;;;103.20;2227.20;;;;;;5003420;28;19905;-75
2023/02/26 03:13:40;;;;;;;;;;;103.20;2227.20;;;;;;5064803;28;20028;-75
2023/02/26 03:16:30;;;;;;;49.88;25.58;;;103.20;2227.20;;;;;;5064600;28;19909;-75
2023/02/26 03:19:30;;;;;;;64.05;31.23;;;103.20;2227.20;;;;;;5071683;28;20024;-75
2023/02/26 03:22:01;;;;;;;37.30;21.27;;;103.10;2227.20;;;;;;5013300;28;20042;-75
2023/02/26 03:24:47;;;;;;;27.98;15.15;;;103.00;2227.20;;;;;;5013213;28;20026;-75
2023/02/26 03:27:24;;;;;;;13.52;7.55;;;102.90;2227.20;;;;;;5012903;28;20490;-76
2023/02/26 03:30:06;;;;;;;30.88;14.80;;;103.00;2227.20;;;;;;4996590;28;20030;-75
2023/02/26 03:32:44;;;;;;;43.08;13.80;;;103.00;2227.20;;;;;;4996229;28;20453;-75
2023/02/26 03:35:17;;;;;;;64.60;22.10;;;103.00;2227.20;;;;;;4996753;28;20552;-75
2023/02/26 03:37:52;;;;;;;79.03;33.10;;;103.10;2227.20;;;;;;4996810;28;20033;-75
2023/02/26 03:40:29;;;;;;;77.68;34.00;;;103.10;2227.20;;;;;;5010330;28;20049;-75
2023/02/26 03:43:21;;;;;;;70.82;34.97;;;103.00;2227.20;;;;;;5013139;28;20051;-75
2023/02/26 03:45:50;;;;;;;58.53;30.25;;;103.10;2227.20;;;;;;4965562;28;20032;-75
2023/02/26 03:48:22;;;;;;;33.60;17.60;;;103.00;2227.20;;;;;;4970428;28;20562;-75
2023/02/26 03:50:52;;;;;;;20.63;11.10;;;103.10;2227.20;;;;;;4938196;29;20531;-75
2023/02/26 03:53:35;;;;;;;14.20;8.18;;;103.00;2227.20;;;;;;4937777;29;20047;-75
2023/02/26 03:56:08;;;;;;;13.60;8.25;;;103.00;2227.20;;;;;;4937973;29;20023;-76
2023/02/26 03:58:34;;;;;;;17.05;9.30;;;102.90;2227.20;;;;;;4978555;28;20034;-75
2023/02/26 04:01:02;;;;;;;;;;;102.90;2227.20;;;;;;5012617;28;20037;-75
2023/02/26 04:03:38;;;;;;;23.52;11.23;;;102.90;2227.20;;;;;;5012185;28;20084;-77
2023/02/26 04:06:04;;;;;;;17.80;10.05;;;102.80;2227.20;;;;;;5012137;28;20399;-75
2023/02/26 04:08:30;;;;;;;14.40;7.90;;;102.80;2227.20;;;;;;4995615;28;20394;-75
2023/02/26 04:10:58;;;;;;;;;;;102.90;2227.20;;;;;;4996175;28;20026;-75
2023/02/26 04:13:24;;;;;;;6.35;3.80;;;102.90;2227.20;;;;;;5011996;28;19920;-77
2023/02/26 04:15:49;;;;;;;;;;;102.80;2227.20;;;;;;4997539;28;20056;-74
2023/02/26 04:18:15;;;;;;;4.97;2.47;;;102.80;2227.20;;;;;;5030918;28;19920;-75
2023/02/26 04:20:40;;;;;;;;;;;102.70;2227.20;;;;;;5023030;28;20109;-75
2023/02/26 04:23:06;;;;;;;4.47;2.90;;;102.80;2227.20;;;;;;5045929;28;19905;-75
2023/02/26 04:25:32;;;;;;;;;;;102.70;2227.20;;;;;;5068287;28;20082;-76
2023/02/26 04:27:57;;;;;;;4.10;2.40;;;102.70;2227.20;;;;;;5055590;28;20272;-75
2023/02/26 04:30:23;;;;;;;;;;;102.70;2227.20;;;;;;5065624;28;20028;-76
2023/02/26 04:32:49;;;;;;;5.85;3.03;;;102.80;2227.20;;;;;;5065497;28;19946;-75
2023/02/26 04:35:14;;;;;;;;;;;102.70;2227.20;;;;;;5056923;28;20029;-75
2023/02/26 04:37:40;;;;;;;5.25;2.80;;;102.60;2227.20;;;;;;5065065;28;19911;-75
2023/02/26 04:40:06;;;;;;;;;;;102.60;2227.20;;;;;;5055952;28;20032;-75
2023/02/26 04:42:31;;;;;;;4.50;2.60;;;102.60;2227.20;;;;;;5058063;28;19912;-75
2023/02/26 04:44:57;;;;;;;;;;;102.70;2227.20;;;;;;5074262;28;20025;-75
2023/02/26 04:47:23;;;;;;;6.60;3.63;;;102.80;2227.20;;;;;;5059346;28;19931;-74
2023/02/26 04:49:48;;;;;;;;;;;102.80;2227.20;;;;;;5054398;28;20092;-76
2023/02/26 04:52:14;;;;;;;6.55;3.67;;;102.80;2227.20;;;;;;5071401;28;20352;-77
2023/02/26 04:54:40;;;;;;;;;;;102.80;2227.20;;;;;;5065857;28;20063;-75
2023/02/26 04:57:06;;;;;;;8.38;4.05;;;102.80;2227.20;;;;;;5057943;28;19904;-74
2023/02/26 04:59:32;;;;;;;9.23;5.65;;;102.60;2227.20;;;;;;5057877;28;20020;-75
2023/02/26 05:01:57;;;;;;;;;;;102.70;2227.20;;;;;;5065795;28;20035;-76
2023/02/26 05:04:23;;;;;;;9.07;5.03;;;102.60;2227.20;;;;;;5055396;28;20349;-75
2023/02/26 05:06:49;;;;;;;;;;;102.70;2227.20;;;;;;5060322;28;20016;-75
2023/02/26 05:09:14;;;;;;;11.40;7.10;;;102.70;2227.20;;;;;;5054975;28;19909;-77
2023/02/26 05:11:40;;;;;;;;;;;102.70;2227.20;;;;;;5055205;28;20409;-75
2023/02/26 05:14:06;;;;;;;10.77;6.10;;;102.60;2227.20;;;;;;5057548;28;20027;-75
2023/02/26 05:16:31;;;;;;;;;;;102.50;2227.20;;;;;;5057948;28;20350;-75
2023/02/26 05:18:57;;;;;;;6.97;3.60;;;102.50;2227.20;;;;;;5051983;28;19951;-75
2023/02/26 05:21:22;;;;;;;;;;;102.50;2227.20;;;;;;5062571;28;20035;-75
2023/02/26 05:23:48;;;;;;;6.63;3.97;;;102.60;2227.20;;;;;;5069707;28;19958;-75
2023/02/26 05:26:13;;;;;;;;;;;102.50;2227.20;;;;;;5063928;28;20013;-76
2023/02/26 05:28:39;;;;;;;5.28;3.38;;;102.50;2227.20;;;;;;5062924;28;19905;-75
2023/02/26 05:31:05;;;;;;;;;;;102.50;2227.20;;;;;;5064323;28;20039;-75
2023/02/26 05:33:31;;;;;;;6.45;4.85;;;102.40;2227.20;;;;;;5064471;28;19935;-75
2023/02/26 05:35:57;;;;;;;;;;;102.40;2227.20;;;;;;5066850;28;20031;-76
2023/02/26 05:38:23;;;;;;;6.38;3.75;;;102.40;2227.20;;;;;;5055022;28;20505;-75
2023/02/26 05:40:48;;;;;;;;;;;102.40;2227.20;;;;;;5068584;28;20427;-75
2023/02/26 05:43:14;;;;;;;10.20;5.32;;;102.40;2227.20;;;;;;5066401;28;19912;-77
2023/02/26 05:45:40;;;;;;;;;;;77.70;2227.20;;;;;;5068479;28;20027;-75
2023/02/26 05:48:06;;;;;;;14.45;9.23;;;77.70;2227.20;;;;;;5054890;28;19912;-76
2023/02/26 05:50:31;;;;;;;;;;;77.60;2227.20;;;;;;5066878;28;20055;-76
2023/02/26 05:52:57;;;;;;;26.55;12.63;;;77.70;2227.20;;;;;;5054452;28;19919;-77
2023/02/26 05:55:23;;;;;;;;;;;77.70;2227.20;;;;;;5070111;28;20025;-75
2023/02/26 05:57:49;;;;;;;22.13;11.90;;;77.70;2227.20;;;;;;5083768;28;19911;-75
2023/02/26 06:00:14;;;;;;;;;;;77.70;2227.20;;;;;;5057598;28;20075;-75
2023/02/26 06:02:41;;;;;;;16.10;9.73;;;102.40;2227.20;;;;;;5061340;28;19916;-75
2023/02/26 06:05:07;;;;;;;13.38;7.72;;;102.40;2227.20;;;;;;5067013;28;20047;-74
2023/02/26 06:07:33;;;;;;;16.20;8.00;;;77.70;2227.20;;;;;;5071778;28;20099;-75
2023/02/26 06:09:59;;;;;;;;;;;77.70;2227.20;;;;;;5068969;28;20123;-75
2023/02/26 06:12:24;;;;;;;18.10;10.25;;;77.60;2227.20;;;;;;5063876;28;20391;-74
2023/02/26 06:14:50;;;;;;;;;;;77.70;2227.20;;;;;;5065181;28;20016;-75
2023/02/26 06:17:16;;;;;;;14.40;6.82;;;102.40;2227.20;;;;;;5062761;28;19905;-74
2023/02/26 06:19:42;;;;;;;;;;;102.40;2227.20;;;;;;5070767;28;20035;-74
2023/02/26 06:22:07;;;;;;;10.52;6.53;;;102.40;2227.20;;;;;;5061990;28;19904;-74
2023/02/26 06:24:33;;;;;;;;;;;102.40;2227.20;;;;;;5055681;28;20017;-75
2023/02/26 06:26:59;;;;;;;9.07;5.60;;;102.50;2227.20;;;;;;5064951;28;19982;-75
2023/02/26 06:29:25;;;;;;;;;;;102.40;2227.20;;;;;;5065496;28;20055;-76
2023/02/26 06:31:50;;;;;;;11.15;6.88;;;102.50;2227.20;;;;;;5067085;28;20081;-75
2023/02/26 06:34:16;;;;;;;;;;;102.50;2227.20;;;;;;5055958;28;20422;-76
2023/02/26 06:36:42;;;;;;;20.67;10.68;;;102.40;2227.20;;;;;;5057569;28;20280;-75
2023/02/26 06:39:07;;;;;;;;;;;102.40;2227.20;;;;;;5071948;28;20107;-76
2023/02/26 06:41:33;;;;;;;18.88;9.95;;;102.50;2227.20;;;;;;5073710;28;20413;-75
2023/02/26 06:43:58;;;;;;;;;;;102.50;2227.20;;;;;;5073735;28;20481;-74
2023/02/26 06:46:24;;;;;;;13.95;7.05;;;102.50;2227.20;;;;;;5075316;28;20390;-76
2023/02/26 06:48:50;;;;;;;;;;;102.50;2227.20;;;;;;5073846;28;20036;-75
2023/02/26 06:51:15;;;;;;;10.80;6.30;;;102.50;2227.20;;;;;;5073972;28;19904;-75
2023/02/26 06:53:41;;;;;;;;;;;102.70;2227.20;;;;;;5074942;28;20033;-74
2023/02/26 06:56:07;;;;;;;14.05;10.07;;;102.70;2227.20;;;;;;5074639;28;19904;-75
2023/02/26 06:58:32;;;;;;;;;;;102.80;2227.20;;;;;;5090131;28;20067;-75
2023/02/26 07:00:58;;;;;;;12.20;8.98;;;102.80;2227.20;;;;;;5073474;28;19904;-76
2023/02/26 07:03:24;;;;;;;;;;;102.90;2227.20;;;;;;5075310;28;20050;-75
2023/02/26 07:05:49;;;;;;;15.35;7.90;;;103.00;2227.20;;;;;;5073378;28;19956;-75
2023/02/26 07:08:15;;;;;;;;;;;103.00;2227.20;;;;;;5075763;28;20385;-75
2023/02/26 07:10:44;;;;;;;13.43;7.90;;;103.10;2227.20;;;;;;5074712;28;19908;-76
2023/02/26 07:13:10;;;;;;;14.50;8.82;;;103.30;2227.20;;;;;;5074466;28;20032;-77
2023/02/26 07:15:36;;;;;;;;;;;103.10;2227.20;;;;;;5075555;28;20025;-76
2023/02/26 07:18:01;;;;;;;12.77;7.20;;;103.10;2227.20;;;;;;5073585;28;19904;-76
2023/02/26 07:20:28;;;;;;;;;;;103.10;2227.20;;;;;;5075536;28;20024;-74
2023/02/26 07:22:54;;;;;;;9.02;5.32;;;103.10;2227.20;;;;;;5073397;28;19904;-75
2023/02/26 07:25:20;;;;;;;;;;;103.20;2227.20;;;;;;5073433;28;20027;-75
2023/02/26 07:27:46;;;;;;;11.63;7.10;;;103.20;2227.20;;;;;;5073551;28;20268;-75
2023/02/26 07:30:12;;;;;;;12.95;8.77;;;103.20;2227.20;;;;;;5074430;28;20089;-74
2023/02/26 07:32:38;;;;;;;12.27;7.53;;;103.20;2227.20;;;;;;5074717;28;20131;-75
2023/02/26 07:35:04;;;;;;;;;;;103.20;2227.20;;;;;;5077234;28;20544;-74
2023/02/26 07:37:30;;;;;;;8.40;5.53;;;103.20;2227.20;;;;;;5073059;28;19904;-75
2023/02/26 07:39:55;;;;;;;;;;;103.20;2227.20;;;;;;5074628;28;20031;-74
2023/02/26 07:42:21;;;;;;;10.32;6.22;;;103.20;2227.20;;;;;;5078167;28;19904;-75
2023/02/26 07:44:46;;;;;;;;;;;103.20;2227.20;;;;;;5074464;28;20461;-74
2023/02/26 07:47:13;;;;;;;8.15;5.30;;;103.20;2227.20;;;;;;5073880;28;19991;-74
2023/02/26 07:49:39;;;;;;;10.35;5.30;;;103.20;2227.20;;;;;;5073106;28;20480;-76
2023/02/26 07:52:06;;;;;;;;;;;103.20;2227.20;;;;;;5079738;28;20447;-76
2023/02/26 07:54:33;;;;;;;11.98;5.55;;;103.30;2227.20;;;;;;5072956;28;19905;-76
2023/02/26 07:56:59;;;;;;;10.15;5.95;;;103.20;2227.20;;;;;;5072898;28;20453;-76
2023/02/26 07:59:25;;;;;;;;;;;103.30;2227.20;;;;;;5073778;28;20053;-76
2023/02/26 08:01:50;;;;;;;14.40;6.65;;;128.00;2252.80;;;;;;5072677;28;20043;-75
2023/02/26 08:04:16;;;;;;;;;;;103.30;2227.20;;;;;;5074276;28;20465;-76
2023/02/26 08:06:42;;;;;;;13.82;7.20;;;128.00;2252.80;;;;;;5073387;28;20053;-77
2023/02/26 08:09:07;;;;;;;;;;;128.00;2252.80;;;;;;5072080;28;20056;-75
2023/02/26 08:11:38;;;;;;;9.30;5.35;;;128.00;2252.80;;;;;;5072807;28;19958;-77
2023/02/26 08:14:04;;;;;;;11.18;6.35;;;103.30;2227.20;;;;;;5071409;28;20038;-76
2023/02/26 08:16:30;;;;;;;12.57;7.47;;;128.00;2252.80;;;;;;5073664;28;20025;-76
2023/02/26 08:18:55;;;;;;;;;;;128.20;2252.80;;;;;;5072966;28;20416;-78
2023/02/26 08:21:22;;;;;;;9.40;5.97;;;128.20;2252.80;;;;;;5072094;28;20351;-76
2023/02/26 08:23:47;;;;;;;11.75;6.63;;;128.20;2252.80;;;;;;5073249;28;20091;-76
2023/02/26 08:26:13;;;;;;;;;;;128.10;2252.80;;;;;;5072521;28;20115;-76
2023/02/26 08:28:39;;;;;;;13.68;7.50;;;128.00;2252.80;;;;;;5074565;28;19908;-76
2023/02/26 08:31:05;;;;;;;;;;;128.20;2252.80;;;;;;5072394;28;20028;-76
2023/02/26 08:33:32;;;;;;;14.67;7.87;;;128.20;2252.80;;;;;;5072166;28;19912;-77
2023/02/26 08:35:58;;;;;;;43.15;18.08;;;128.20;2252.80;;;;;;5074017;28;20249;-77
2023/02/26 08:38:27;;;;;;;;;;;128.30;2252.80;;;;;;5072293;28;20047;-77
2023/02/26 08:40:53;;;;;;;16.48;9.60;;;128.40;2252.80;;;;;;5072139;28;19930;-76
2023/02/26 08:43:19;;;;;;;;;;;128.40;2252.80;;;;;;5072293;28;20145;-75
2023/02/26 08:45:45;;;;;;;18.25;9.68;;;128.40;2252.80;;;;;;5073707;28;20399;-75
2023/02/26 08:48:11;;;;;;;15.35;9.73;;;128.50;2252.80;;;;;;5069619;28;20017;-79
2023/02/26 08:50:37;;;;;;;;;;;128.40;2252.80;;;;;;5068829;28;20025;-76
2023/02/26 08:53:03;;;;;;;19.05;9.30;;;128.40;2252.80;;;;;;5071304;28;20368;-76
2023/02/26 08:55:29;;;;;;;;;;;128.50;2252.80;;;;;;5072735;28;20027;-75
2023/02/26 08:57:55;;;;;;;14.93;8.18;;;128.60;2252.80;;;;;;5066360;28;20344;-74
2023/02/26 09:00:20;;;;;;;;;;;128.60;2252.80;;;;;;5073302;28;20025;-75
2023/02/26 09:02:46;;;;;;;10.02;5.70;;;128.40;2252.80;;;;;;5072559;28;19935;-74
2023/02/26 09:05:13;;;;;;;;;;;128.60;2252.80;;;;;;5071974;28;20040;-76
2023/02/26 09:07:39;;;;;;;9.27;5.05;;;128.60;2252.80;;;;;;5071453;28;19904;-75
2023/02/26 09:10:05;;;;;;;;;;;128.60;2252.80;;;;;;5071860;28;20029;-77
2023/02/26 09:12:32;;;;;;;9.25;5.78;;;128.40;2252.80;;;;;;5071187;28;19921;-76
2023/02/26 09:14:57;;;;;;;8.57;4.88;;;128.60;2252.80;;;;;;5071410;28;20027;-76
2023/02/26 09:17:24;;;;;;;;;;;128.70;2252.80;;;;;;5087894;28;20396;-75
2023/02/26 09:19:50;;;;;;;7.45;4.60;;;128.80;2252.80;;;;;;5072473;28;19999;-75
2023/02/26 09:22:15;;;;;;;;;;;128.90;2252.80;;;;;;5071502;28;20480;-74
2023/02/26 09:24:41;;;;;;;10.25;5.30;;;128.80;2252.80;;;;;;5071371;28;19905;-74
2023/02/26 09:27:06;;;;;;;;;;;128.80;2252.80;;;;;;5072811;28;20776;-73
2023/02/26 09:29:32;;;;;;;10.98;5.97;;;128.90;2252.80;;;;;;5071283;28;19927;-74
2023/02/26 09:31:57;;;;;;;;;;;128.90;2252.80;;;;;;5071426;28;20091;-76
2023/02/26 09:34:23;;;;;;;9.00;5.38;;;128.90;2252.80;;;;;;5070862;28;20396;-75
2023/02/26 09:36:49;;;;;;;;;;;128.90;2252.80;;;;;;5070361;28;20531;-75
2023/02/26 09:39:14;;;;;;;8.25;5.13;;;128.90;2252.80;;;;;;5072291;28;19916;-75
2023/02/26 09:41:41;;;;;;;;;;;153.60;2252.80;;;;;;5071251;28;20392;-73
2023/02/26 09:44:25;;;;;;;6.70;3.90;;;128.90;2252.80;;;;;;5072434;28;20264;-75
2023/02/26 09:47:16;;;;;;;8.50;5.32;;;153.60;2252.80;;;;;;5083477;28;20460;-74
2023/02/26 09:49:48;;;;;;;11.85;6.85;;;153.60;2252.80;;;;;;5088618;28;20032;-72
2023/02/26 09:52:50;;;;;;;10.52;6.75;;;153.70;2252.80;;;;;;5072556;28;20033;-75
2023/02/26 09:55:38;;;;;;;10.60;6.40;;;153.80;2252.80;;;;;;5075271;28;20028;-75
2023/02/26 09:58:11;;;;;;;10.23;6.20;;;153.90;2252.80;;;;;;5087042;28;20024;-74
2023/02/26 10:00:57;;;;;;;9.07;6.20;;;153.80;2252.80;;;;;;5068515;28;20082;-75
2023/02/26 10:03:23;;;;;;;8.88;5.55;;;153.80;2252.80;;;;;;5060732;28;20047;-74
2023/02/26 10:06:00;;;;;;;;;;;153.90;2252.80;;;;;;5083231;28;20056;-74
2023/02/26 10:08:37;;;;;;;8.43;5.45;;;154.00;2252.80;;;;;;5061099;28;19908;-75
2023/02/26 10:11:17;;;;;;;9.70;5.57;;;154.00;2252.80;;;;;;5062424;28;20040;-76
2023/02/26 10:13:49;;;;;;;12.65;7.13;;;153.90;2252.80;;;;;;5062042;28;20028;-74
2023/02/26 10:16:22;;;;;;;14.18;6.72;;;154.00;2252.80;;;;;;5064954;28;20063;-74
2023/02/26 10:18:59;;;;;;;13.05;8.05;;;154.10;2252.80;;;;;;5061704;28;20346;-74
2023/02/26 10:21:29;;;;;;;7.78;4.78;;;154.10;2252.80;;;;;;5062764;28;20029;-74
2023/02/26 10:23:57;;;;;;;7.53;5.15;;;154.10;2252.80;;;;;;5060263;28;20017;-74
2023/02/26 10:26:24;;;;;;;7.95;5.30;;;154.10;2252.80;;;;;;5070528;28;20040;-74
2023/02/26 10:28:53;;;;;;;10.02;5.72;;;154.20;2252.80;;;;;;5084466;28;20025;-73
2023/02/26 10:31:42;;;;;;;8.25;4.85;;;154.20;2252.80;;;;;;5060896;28;20043;-72
2023/02/26 10:34:36;;;;;;;8.65;5.38;;;154.10;2252.80;;;;;;5030073;28;20072;-76
2023/02/26 10:37:19;;;;;;;7.90;4.82;;;154.20;2252.80;;;;;;5024721;28;20033;-75
2023/02/26 10:40:11;;;;;;;8.60;4.97;;;154.20;2252.80;;;;;;5007134;28;20379;-74
2023/02/26 10:43:02;;;;;;;13.55;7.05;;;154.30;2252.80;;;;;;5021377;28;20029;-75
2023/02/26 10:46:06;;;;;;;6.85;4.60;;;154.10;2252.80;;;;;;5028295;28;20033;-76
2023/02/26 10:48:53;;;;;;;7.93;4.68;;;154.10;2252.80;;;;;;5021455;28;20026;-73
2023/02/26 10:51:24;;;;;;;10.77;5.78;;;154.10;2252.80;;;;;;5022924;28;20041;-74
2023/02/26 10:54:02;;;;;;;12.40;6.70;;;154.10;2252.80;;;;;;5022780;28;20489;-76
2023/02/26 10:56:33;;;;;;;13.85;7.25;;;154.20;2252.80;;;;;;5026587;28;20568;-76
2023/02/26 10:58:59;;;;;;;7.82;5.45;;;154.10;2252.80;;;;;;5031815;28;20036;-77
2023/02/26 11:01:28;;;;;;;14.95;8.32;;;154.10;2252.80;;;;;;5015763;28;20163;-76
2023/02/26 11:04:12;;;;;;;13.57;7.68;;;154.10;2252.80;;;;;;5028967;28;20038;-76
2023/02/26 11:06:47;;;;;;;13.63;7.40;;;154.10;2252.80;;;;;;5016791;28;20025;-76
2023/02/26 11:09:22;;;;;;;11.30;7.37;;;154.10;2252.80;;;;;;5032637;28;20065;-76
2023/02/26 11:11:56;;;;;;;9.82;6.78;;;154.20;2252.80;;;;;;5059721;28;20280;-77
2023/02/26 11:14:24;;;;;;;10.65;7.00;;;154.20;2252.80;;;;;;5072788;28;20035;-76
2023/02/26 11:16:56;;;;;;;11.77;7.13;;;154.20;2252.80;;;;;;5070133;28;20385;-76
2023/02/26 11:19:31;;;;;;;11.32;7.03;;;154.20;2252.80;;;;;;5087324;28;20032;-76
2023/02/26 11:21:59;;;;;;;11.87;7.40;;;154.30;2252.80;;;;;;5074435;28;20025;-77
2023/02/26 11:24:31;;;;;;;11.52;6.95;;;154.30;2252.80;;;;;;5072788;28;20365;-76
2023/02/26 11:27:02;;;;;;;9.43;7.03;;;154.30;2252.80;;;;;;5074202;28;20028;-76
2023/02/26 11:29:41;;;;;;;11.63;7.65;;;154.40;2252.80;;;;;;5074361;28;20027;-76
2023/02/26 11:32:22;;;;;;;15.23;9.60;;;154.50;2252.80;;;;;;5069965;28;20063;-75
2023/02/26 11:34:54;;;;;;;16.42;9.32;;;154.50;2252.80;;;;;;5072571;28;20039;-75
2023/02/26 11:37:26;;;;;;;14.68;8.57;;;154.40;2252.80;;;;;;5071007;28;20021;-76
2023/02/26 11:40:18;;;;;;;13.93;8.13;;;154.30;2252.80;;;;;;5085184;28;20053;-75
2023/02/26 11:42:49;;;;;;;17.70;10.07;;;154.30;2252.80;;;;;;5067610;28;20025;-76
2023/02/26 11:45:18;;;;;;;14.52;9.90;;;154.30;2252.80;;;;;;5070948;28;20590;-76
2023/02/26 11:47:46;;;;;;;12.05;7.45;;;154.30;2252.80;;;;;;5073613;28;20024;-76
2023/02/26 11:50:21;;;;;;;14.27;8.75;;;154.50;2252.80;;;;;;5073650;28;20033;-76
2023/02/26 11:52:54;;;;;;;16.50;9.57;;;154.40;2252.80;;;;;;5073515;28;20554;-75
2023/02/26 11:55:32;;;;;;;14.68;8.40;;;154.50;2252.80;;;;;;5074233;28;20264;-74
2023/02/26 11:57:58;;;;;;;14.63;8.63;;;154.50;2252.80;;;;;;5073076;28;20020;-75
2023/02/26 12:00:24;;;;;;;;;;;154.50;2252.80;;;;;;5074216;28;20027;-75
2023/02/26 12:02:49;;;;;;;16.20;10.73;;;179.20;2252.80;;;;;;5077134;28;20368;-74
2023/02/26 12:05:16;;;;;;;;;;;154.50;2252.80;;;;;;5071836;28;20032;-74
2023/02/26 12:07:42;;;;;;;16.38;10.48;;;179.20;2252.80;;;;;;5073017;28;19904;-75
2023/02/26 12:10:16;;;;;;;;;;;154.50;2252.80;;;;;;5073185;28;20111;-75
2023/02/26 12:12:59;;;;;;;15.52;10.52;;;154.50;2252.80;;;;;;5070354;28;19923;-75
2023/02/26 12:15:34;;;;;;;20.10;12.13;;;154.50;2252.80;;;;;;5069346;28;20028;-75
2023/02/26 12:18:11;;;;;;;20.15;13.02;;;154.50;2252.80;;;;;;5072279;28;20066;-75
2023/02/26 12:20:45;;;;;;;19.33;12.73;;;179.20;2252.80;;;;;;5069614;28;20052;-74
2023/02/26 12:23:52;;;;;;;20.27;12.40;;;179.20;2252.80;;;;;;5067979;28;20021;-75
2023/02/26 12:26:45;;;;;;;22.80;14.47;;;179.40;2252.80;;;;;;5071191;28;20029;-75
2023/02/26 12:29:26;;;;;;;21.48;14.43;;;179.30;2252.80;;;;;;5070732;28;20120;-75
2023/02/26 12:32:10;;;;;;;22.08;15.20;;;179.40;2252.80;;;;;;5077707;28;20131;-74
2023/02/26 12:34:42;;;;;;;19.10;13.60;;;179.40;2252.80;;;;;;5063504;28;20040;-77
2023/02/26 12:37:26;;;;;;;22.02;15.48;;;179.30;2252.80;;;;;;5060872;28;20040;-77
2023/02/26 12:40:10;;;;;;;26.30;16.30;;;179.30;2252.80;;;;;;5084406;28;20024;-77
2023/02/26 12:42:57;;;;;;;23.35;15.18;;;179.40;2252.80;;;;;;5085885;28;20035;-78
2023/02/26 12:45:43;;;;;;;23.67;15.63;;;179.40;2252.80;;;;;;5083578;28;20396;-77
2023/02/26 12:48:24;;;;;;;20.23;13.63;;;179.40;2252.80;;;;;;5064913;28;20025;-76
2023/02/26 12:51:12;;;;;;;21.17;15.23;;;179.40;2252.80;;;;;;5070008;28;20016;-76